createdAt,value
2017-12-16T00:00:34.639Z,74.90
2017-12-16T00:03:02.773Z,75.00
2017-12-16T00:05:31.721Z,75.20
2017-12-16T00:07:59.869Z,75.20
2017-12-16T00:10:28.138Z,75.10
2017-12-16T00:12:56.281Z,75.20
2017-12-16T00:15:25.238Z,75.30
2017-12-16T00:17:53.375Z,75.30
2017-12-16T00:20:21.550Z,75.30
2017-12-16T00:22:49.726Z,75.40
2017-12-16T00:25:17.890Z,75.50
2017-12-16T00:27:46.172Z,75.60
2017-12-16T00:30:14.318Z,75.90
2017-12-16T00:32:43.302Z,76.30
2017-12-16T00:35:11.461Z,76.30
2017-12-16T00:37:39.593Z,76.10
2017-12-16T00:40:07.776Z,76.00
2017-12-16T00:42:35.923Z,75.60
2017-12-16T00:45:04.958Z,75.40
2017-12-16T00:47:33.106Z,75.50
2017-12-16T00:50:01.289Z,75.50
2017-12-16T00:52:29.424Z,75.80
2017-12-16T00:54:57.568Z,76.10
2017-12-16T00:57:25.735Z,76.00
2017-12-16T00:59:53.874Z,75.80
2017-12-16T01:02:22.150Z,75.90
2017-12-16T01:04:50.285Z,75.70
2017-12-16T01:07:18.448Z,75.90
2017-12-16T01:09:46.618Z,76.10
2017-12-16T01:12:14.784Z,75.60
2017-12-16T01:14:42.948Z,75.30
2017-12-16T01:17:11.097Z,75.00
2017-12-16T01:19:40.145Z,74.80
2017-12-16T01:22:08.311Z,74.80
2017-12-16T01:24:36.456Z,74.80
2017-12-16T01:27:04.651Z,74.80
2017-12-16T01:29:32.814Z,74.70
2017-12-16T01:32:00.982Z,74.90
2017-12-16T01:34:29.162Z,75.00
2017-12-16T01:36:57.329Z,75.20
2017-12-16T01:39:26.452Z,75.40
2017-12-16T01:41:54.580Z,75.60
2017-12-16T01:44:22.852Z,75.60
2017-12-16T01:46:51.008Z,75.60
2017-12-16T01:49:19.176Z,75.50
2017-12-16T01:51:47.315Z,75.50
2017-12-16T01:54:15.443Z,75.70
2017-12-16T01:56:43.618Z,75.70
2017-12-16T01:59:11.762Z,75.90
2017-12-16T02:01:40.054Z,76.10
2017-12-16T02:04:08.192Z,76.20
2017-12-16T02:06:36.349Z,76.40
2017-12-16T02:09:04.514Z,76.60
2017-12-16T02:11:32.647Z,76.90
2017-12-16T02:14:00.797Z,76.90
2017-12-16T02:16:29.077Z,76.90
2017-12-16T02:18:57.244Z,76.80
2017-12-16T02:21:26.170Z,76.90
2017-12-16T02:23:54.340Z,76.90
2017-12-16T02:26:22.473Z,77.00
2017-12-16T02:28:51.390Z,77.50
2017-12-16T02:31:19.541Z,77.40
2017-12-16T02:33:48.438Z,77.60
2017-12-16T02:36:17.488Z,77.70
2017-12-16T02:38:45.633Z,77.70
2017-12-16T02:41:13.773Z,77.70
2017-12-16T02:43:41.935Z,77.70
2017-12-16T02:46:10.102Z,77.60
2017-12-16T02:48:38.245Z,77.60
2017-12-16T02:51:06.390Z,77.60
2017-12-16T02:53:34.658Z,77.90
2017-12-16T02:56:02.802Z,78.40
2017-12-16T02:58:30.977Z,78.60
2017-12-16T03:00:59.101Z,78.70
2017-12-16T03:03:27.235Z,79.20
2017-12-16T03:05:56.183Z,78.80
2017-12-16T03:08:24.318Z,78.80
2017-12-16T03:10:52.608Z,78.80
2017-12-16T03:13:20.760Z,78.50
2017-12-16T03:15:48.899Z,78.40
2017-12-16T03:18:17.064Z,78.20
2017-12-16T03:20:45.216Z,77.90
2017-12-16T03:23:13.352Z,77.80
2017-12-16T03:25:42.270Z,77.70
2017-12-16T03:28:10.541Z,77.70
2017-12-16T03:30:38.678Z,77.50
2017-12-16T03:33:07.628Z,77.40
2017-12-16T03:35:35.765Z,77.40
2017-12-16T03:38:03.909Z,77.50
2017-12-16T03:40:32.073Z,77.60
2017-12-16T03:43:00.219Z,77.70
2017-12-16T03:45:28.477Z,78.20
2017-12-16T03:47:57.372Z,78.40
2017-12-16T03:50:25.531Z,78.40
2017-12-16T03:52:53.662Z,78.20
2017-12-16T03:55:21.797Z,78.20
2017-12-16T03:57:49.948Z,78.10
2017-12-16T04:00:18.076Z,77.90
2017-12-16T04:02:46.349Z,77.90
2017-12-16T04:05:14.475Z,77.80
2017-12-16T04:07:42.602Z,77.70
2017-12-16T04:10:10.773Z,77.70
2017-12-16T04:12:38.923Z,77.60
2017-12-16T04:15:07.048Z,77.80
2017-12-16T04:17:35.212Z,78.00
2017-12-16T04:20:04.127Z,78.00
2017-12-16T04:22:32.256Z,78.00
2017-12-16T04:25:00.526Z,77.90
2017-12-16T04:27:28.647Z,78.40
2017-12-16T04:29:56.798Z,78.20
2017-12-16T04:32:25.700Z,78.40
2017-12-16T04:34:53.982Z,78.40
2017-12-16T04:37:22.124Z,78.40
2017-12-16T04:39:50.253Z,78.40
2017-12-16T04:42:18.433Z,78.20
2017-12-16T04:44:46.556Z,78.00
2017-12-16T04:47:15.512Z,77.90
2017-12-16T04:49:43.676Z,77.90
2017-12-16T04:52:11.945Z,77.90
2017-12-16T04:54:40.090Z,78.10
2017-12-16T04:57:09.005Z,78.00
2017-12-16T04:59:37.148Z,78.10
2017-12-16T05:02:05.277Z,78.00
2017-12-16T05:04:33.430Z,78.10
2017-12-16T05:07:01.564Z,78.00
2017-12-16T05:09:29.697Z,78.10
2017-12-16T05:11:57.974Z,78.20
2017-12-16T05:14:26.105Z,78.00
2017-12-16T05:16:54.236Z,78.10
2017-12-16T05:19:22.406Z,78.00
2017-12-16T05:21:50.535Z,78.40
2017-12-16T05:24:18.704Z,78.50
2017-12-16T05:26:46.832Z,78.70
2017-12-16T05:29:14.975Z,78.80
2017-12-16T05:31:43.235Z,79.00
2017-12-16T05:34:11.373Z,79.50
2017-12-16T05:36:39.524Z,79.60
2017-12-16T05:39:07.658Z,79.70
2017-12-16T05:41:35.822Z,80.00
2017-12-16T05:44:03.965Z,80.20
2017-12-16T05:46:32.093Z,80.00
2017-12-16T05:49:00.361Z,79.90
2017-12-16T05:51:28.544Z,79.70
2017-12-16T05:53:56.661Z,79.70
2017-12-16T05:56:25.569Z,80.00
2017-12-16T05:58:53.696Z,79.90
2017-12-16T06:01:21.859Z,79.90
2017-12-16T06:03:49.989Z,79.90
2017-12-16T06:06:18.264Z,80.10
2017-12-16T06:08:46.416Z,80.00
2017-12-16T06:11:15.314Z,80.40
2017-12-16T06:13:43.481Z,80.40
2017-12-16T06:16:12.378Z,80.30
2017-12-16T06:18:41.285Z,80.40
2017-12-16T06:21:09.437Z,80.30
2017-12-16T06:23:38.340Z,80.40
2017-12-16T06:26:07.383Z,80.30
2017-12-16T06:28:35.507Z,80.30
2017-12-16T06:31:03.647Z,80.80
2017-12-16T06:33:31.912Z,81.50
2017-12-16T06:36:00.055Z,82.20
2017-12-16T06:38:28.211Z,82.30
2017-12-16T06:40:56.342Z,82.60
2017-12-16T06:43:24.460Z,82.70
2017-12-16T06:45:52.628Z,83.50
2017-12-16T06:48:20.754Z,82.70
2017-12-16T06:50:48.953Z,82.80
2017-12-16T06:53:17.859Z,83.60
2017-12-16T06:55:45.999Z,83.70
2017-12-16T06:58:14.158Z,83.60
2017-12-16T07:00:42.300Z,83.60
2017-12-16T07:03:10.479Z,83.70
2017-12-16T07:05:38.609Z,83.50
2017-12-16T07:08:07.645Z,84.10
2017-12-16T07:10:35.772Z,84.10
2017-12-16T07:13:04.712Z,84.70
2017-12-16T07:15:32.858Z,84.10
2017-12-16T07:18:00.983Z,84.20
2017-12-16T07:20:29.294Z,84.10
2017-12-16T07:22:58.182Z,84.90
2017-12-16T07:25:27.088Z,85.10
2017-12-16T07:27:55.240Z,85.00
2017-12-16T07:30:24.186Z,84.80
2017-12-16T07:32:52.332Z,84.80
2017-12-16T07:35:20.455Z,85.10
2017-12-16T07:37:48.628Z,85.10
2017-12-16T07:40:16.759Z,85.30
2017-12-16T07:42:45.050Z,85.60
2017-12-16T07:45:13.202Z,85.50
2017-12-16T07:47:41.321Z,85.80
2017-12-16T07:50:09.515Z,86.30
2017-12-16T07:52:37.673Z,86.30
2017-12-16T07:55:05.849Z,86.50
2017-12-16T07:57:34.013Z,86.40
2017-12-16T08:00:02.145Z,86.20
2017-12-16T08:02:30.336Z,86.10
2017-12-16T08:04:58.483Z,86.30
2017-12-16T08:07:26.668Z,85.90
2017-12-16T08:09:54.797Z,85.90
2017-12-16T08:12:22.945Z,85.60
2017-12-16T08:14:51.134Z,86.20
2017-12-16T08:17:19.257Z,85.60
2017-12-16T08:19:47.427Z,85.90
2017-12-16T08:22:15.574Z,86.00
2017-12-16T08:24:44.522Z,86.00
2017-12-16T08:27:12.656Z,86.00
2017-12-16T08:29:40.801Z,86.00
2017-12-16T08:32:08.981Z,86.20
2017-12-16T08:34:37.109Z,86.00
2017-12-16T08:37:05.408Z,85.80
2017-12-16T08:39:33.552Z,85.50
2017-12-16T08:42:01.753Z,85.30
2017-12-16T08:44:29.905Z,85.20
2017-12-16T08:46:58.047Z,85.20
2017-12-16T08:49:26.202Z,85.40
2017-12-16T08:51:54.378Z,85.40
2017-12-16T08:54:22.659Z,85.70
2017-12-16T08:56:51.570Z,86.00
2017-12-16T08:59:19.726Z,86.00
2017-12-16T09:01:48.682Z,86.10
2017-12-16T09:04:16.832Z,86.10
2017-12-16T09:06:44.993Z,86.30
2017-12-16T09:09:13.134Z,86.70
2017-12-16T09:11:42.100Z,86.60
2017-12-16T09:14:10.238Z,86.60
2017-12-16T09:16:38.377Z,86.50
2017-12-16T09:19:06.538Z,87.10
2017-12-16T09:21:35.494Z,87.00
2017-12-16T09:24:03.660Z,87.00
2017-12-16T09:26:31.809Z,87.00
2017-12-16T09:28:59.977Z,87.20
2017-12-16T09:31:28.195Z,87.50
2017-12-16T09:33:56.356Z,87.80
2017-12-16T09:36:24.535Z,87.80
2017-12-16T09:38:52.679Z,88.00
2017-12-16T09:41:20.833Z,88.40
2017-12-16T09:43:48.976Z,88.70
2017-12-16T09:46:17.142Z,88.70
2017-12-16T09:48:45.287Z,88.90
2017-12-16T09:51:13.486Z,88.60
2017-12-16T09:53:41.621Z,88.60
2017-12-16T09:56:09.793Z,88.40
2017-12-16T09:58:37.976Z,88.40
2017-12-16T10:01:06.110Z,88.60
2017-12-16T10:03:35.198Z,88.70
2017-12-16T10:06:03.339Z,88.70
2017-12-16T10:08:31.479Z,88.70
2017-12-16T10:10:59.658Z,88.80
2017-12-16T10:13:27.805Z,89.10
2017-12-16T10:15:55.978Z,89.20
2017-12-16T10:18:24.878Z,89.20
2017-12-16T10:20:53.184Z,89.20
2017-12-16T10:23:21.364Z,89.60
2017-12-16T10:25:49.608Z,89.40
2017-12-16T10:28:17.775Z,89.30
2017-12-16T10:30:45.915Z,89.00
2017-12-16T10:33:14.871Z,88.80
2017-12-16T10:35:43.028Z,89.50
2017-12-16T10:38:11.174Z,88.70
2017-12-16T10:40:40.114Z,88.90
2017-12-16T10:43:08.257Z,88.90
2017-12-16T10:45:36.574Z,88.80
2017-12-16T10:48:04.708Z,88.80
2017-12-16T10:50:47.716Z,88.80
2017-12-16T10:53:16.647Z,89.10
2017-12-16T10:55:44.807Z,89.10
2017-12-16T10:58:12.963Z,89.30
2017-12-16T11:00:41.264Z,89.40
2017-12-16T11:03:09.396Z,89.00
2017-12-16T11:05:38.351Z,89.10
2017-12-16T11:08:06.506Z,89.10
2017-12-16T11:10:34.688Z,89.20
2017-12-16T11:13:02.836Z,89.60
2017-12-16T11:15:30.986Z,89.40
2017-12-16T11:18:00.019Z,89.80
2017-12-16T11:20:28.198Z,89.10
2017-12-16T11:22:56.429Z,89.10
2017-12-16T11:25:25.328Z,90.00
2017-12-16T11:27:53.616Z,89.20
2017-12-16T11:30:21.800Z,89.20
2017-12-16T11:32:49.947Z,89.40
2017-12-16T11:35:18.213Z,89.10
2017-12-16T11:37:47.117Z,88.40
2017-12-16T11:40:15.289Z,89.20
2017-12-16T11:42:43.442Z,88.60
2017-12-16T11:45:12.365Z,89.00
2017-12-16T11:47:40.581Z,88.90
2017-12-16T11:50:09.569Z,87.80
2017-12-16T11:52:37.760Z,87.80
2017-12-16T11:55:05.914Z,87.90
2017-12-16T11:57:34.086Z,88.10
2017-12-16T12:00:02.224Z,87.60
2017-12-16T12:02:30.412Z,87.80
2017-12-16T12:04:58.617Z,87.70
2017-12-16T12:07:26.764Z,87.20
2017-12-16T12:09:54.904Z,87.60
2017-12-16T12:12:23.109Z,87.70
2017-12-16T12:14:51.282Z,88.40
2017-12-16T12:17:19.436Z,88.20
2017-12-16T12:19:47.587Z,87.70
2017-12-16T12:22:16.648Z,84.90
2017-12-16T12:24:44.788Z,84.80
2017-12-16T12:27:12.936Z,85.40
2017-12-16T12:29:41.852Z,85.40
2017-12-16T12:32:09.984Z,85.50
2017-12-16T12:34:38.925Z,85.40
2017-12-16T12:37:07.089Z,85.70
2017-12-16T12:39:35.216Z,84.90
2017-12-16T12:42:03.519Z,85.50
2017-12-16T12:44:32.410Z,85.70
2017-12-16T12:47:00.601Z,85.30
2017-12-16T12:49:28.761Z,84.40
2017-12-16T12:51:57.688Z,84.60
2017-12-16T12:54:25.868Z,84.60
2017-12-16T12:56:54.010Z,83.50
2017-12-16T12:59:22.336Z,83.20
2017-12-16T13:01:50.465Z,83.80
2017-12-16T13:04:18.604Z,83.50
2017-12-16T13:06:46.775Z,84.20
2017-12-16T13:09:14.905Z,84.10
2017-12-16T13:11:43.062Z,83.70
2017-12-16T13:14:11.265Z,84.10
2017-12-16T13:16:39.424Z,82.90
2017-12-16T13:19:07.709Z,81.40
2017-12-16T13:21:35.860Z,80.70
2017-12-16T13:24:04.049Z,80.20
2017-12-16T13:26:32.188Z,79.70
2017-12-16T13:29:00.350Z,79.30
2017-12-16T13:31:28.510Z,78.40
2017-12-16T13:33:57.427Z,75.90
2017-12-16T13:36:25.750Z,75.60
2017-12-16T13:38:53.902Z,76.50
2017-12-16T13:41:22.043Z,76.60
2017-12-16T13:43:50.221Z,77.20
2017-12-16T13:46:18.376Z,77.30
2017-12-16T13:48:46.556Z,77.80
2017-12-16T13:51:15.496Z,76.80
2017-12-16T13:53:43.660Z,77.30
2017-12-16T13:56:11.968Z,77.80
2017-12-16T13:58:40.109Z,77.70
2017-12-16T14:01:08.303Z,78.00
2017-12-16T14:03:36.457Z,77.80
2017-12-16T14:06:04.626Z,77.60
2017-12-16T14:08:32.803Z,78.00
2017-12-16T14:11:00.941Z,78.30
2017-12-16T14:13:29.873Z,78.90
2017-12-16T14:15:58.040Z,78.90
2017-12-16T14:18:26.192Z,78.90
2017-12-16T14:20:54.505Z,78.70
2017-12-16T14:23:22.663Z,78.80
2017-12-16T14:25:50.829Z,78.90
2017-12-16T14:28:18.981Z,79.90
2017-12-16T14:30:47.904Z,79.90
2017-12-16T14:33:16.121Z,79.90
2017-12-16T14:35:44.273Z,80.40
2017-12-16T14:38:12.413Z,80.60
2017-12-16T14:40:40.688Z,81.10
2017-12-16T14:43:08.872Z,81.20
2017-12-16T14:45:37.063Z,81.50
2017-12-16T14:48:05.241Z,81.40
2017-12-16T14:50:33.446Z,81.50
2017-12-16T14:53:01.709Z,81.50
2017-12-16T14:55:29.881Z,81.60
2017-12-16T14:57:58.101Z,81.90
2017-12-16T15:00:26.239Z,82.60
2017-12-16T15:02:54.361Z,83.30
2017-12-16T15:05:22.545Z,83.90
2017-12-16T15:07:50.689Z,84.60
2017-12-16T15:10:18.963Z,84.20
2017-12-16T15:12:47.889Z,84.60
2017-12-16T15:15:16.125Z,84.50
2017-12-16T15:17:45.037Z,84.90
2017-12-16T15:20:13.940Z,85.20
2017-12-16T15:22:42.094Z,85.20
2017-12-16T15:25:10.251Z,85.90
2017-12-16T15:27:38.420Z,85.60
2017-12-16T15:30:07.353Z,85.90
2017-12-16T15:32:35.498Z,85.90
2017-12-16T15:35:03.627Z,86.20
2017-12-16T15:37:31.918Z,86.10
2017-12-16T15:40:00.101Z,86.00
2017-12-16T15:42:28.244Z,85.70
2017-12-16T15:44:56.421Z,85.50
2017-12-16T15:47:24.600Z,85.20
2017-12-16T15:49:52.770Z,85.50
2017-12-16T15:52:21.118Z,84.40
2017-12-16T15:54:49.247Z,84.00
2017-12-16T15:57:18.214Z,83.90
2017-12-16T15:59:46.360Z,83.90
2017-12-16T16:02:14.527Z,83.90
2017-12-16T16:04:42.692Z,83.70
2017-12-16T16:07:10.832Z,83.40
2017-12-16T16:09:39.902Z,84.10
2017-12-16T16:12:08.054Z,84.10
2017-12-16T16:14:36.189Z,84.40
2017-12-16T16:17:04.378Z,84.60
2017-12-16T16:19:32.508Z,84.60
2017-12-16T16:22:00.684Z,84.60
2017-12-16T16:24:28.831Z,85.90
2017-12-16T16:26:57.108Z,85.10
2017-12-16T16:29:25.290Z,84.90
2017-12-16T16:31:53.464Z,84.80
2017-12-16T16:34:21.639Z,85.20
2017-12-16T16:36:49.771Z,85.40
2017-12-16T16:39:17.924Z,85.80
2017-12-16T16:41:46.076Z,85.70
2017-12-16T16:44:15.045Z,85.80
2017-12-16T16:46:43.248Z,85.80
2017-12-16T16:49:11.380Z,85.80
2017-12-16T16:51:40.350Z,85.50
2017-12-16T16:54:09.290Z,85.80
2017-12-16T16:56:37.457Z,85.80
2017-12-16T16:59:05.640Z,85.80
2017-12-16T17:01:33.803Z,85.50
2017-12-16T17:04:02.084Z,85.70
2017-12-16T17:06:30.233Z,85.20
2017-12-16T17:08:58.438Z,85.30
2017-12-16T17:11:26.588Z,84.60
2017-12-16T17:13:54.721Z,84.30
2017-12-16T17:16:22.884Z,83.90
2017-12-16T17:18:51.035Z,84.00
2017-12-16T17:21:19.374Z,84.20
2017-12-16T17:23:47.533Z,84.30
2017-12-16T17:26:15.706Z,84.30
2017-12-16T17:28:44.611Z,84.40
2017-12-16T17:31:12.751Z,84.50
2017-12-16T17:33:40.939Z,84.50
2017-12-16T17:36:09.075Z,84.70
2017-12-16T17:38:37.219Z,84.50
2017-12-16T17:41:05.446Z,84.50
2017-12-16T17:43:33.611Z,84.20
2017-12-16T17:46:02.562Z,84.50
2017-12-16T17:48:30.741Z,84.50
2017-12-16T17:50:58.948Z,84.50
2017-12-16T17:53:27.894Z,84.00
2017-12-16T17:55:56.047Z,84.00
2017-12-16T17:58:24.189Z,84.10
2017-12-16T18:00:53.200Z,83.30
2017-12-16T18:03:21.328Z,84.00
2017-12-16T18:05:49.472Z,83.00
2017-12-16T18:08:17.653Z,83.10
2017-12-16T18:10:45.814Z,82.90
2017-12-16T18:13:13.996Z,82.70
2017-12-16T18:15:42.153Z,82.60
2017-12-16T18:18:10.453Z,82.70
2017-12-16T18:20:38.613Z,82.80
2017-12-16T18:23:06.752Z,82.70
2017-12-16T18:25:34.938Z,82.60
2017-12-16T18:28:03.084Z,82.40
2017-12-16T18:30:31.262Z,82.40
2017-12-16T18:32:59.404Z,82.20
2017-12-16T18:35:27.553Z,82.20
2017-12-16T18:37:55.895Z,82.10
2017-12-16T18:40:24.049Z,82.60
2017-12-16T18:42:52.233Z,82.50
2017-12-16T18:45:20.374Z,82.40
2017-12-16T18:47:48.563Z,82.30
2017-12-16T18:50:16.732Z,82.20
2017-12-16T18:52:44.897Z,82.20
2017-12-16T18:55:13.265Z,82.20
2017-12-16T18:57:41.431Z,82.10
2017-12-16T19:00:10.341Z,81.80
2017-12-16T19:02:38.516Z,81.80
2017-12-16T19:05:06.657Z,81.70
2017-12-16T19:07:34.831Z,82.00
2017-12-16T19:10:02.984Z,82.20
2017-12-16T19:12:31.292Z,82.20
2017-12-16T19:14:59.432Z,82.10
2017-12-16T19:17:27.602Z,82.20
2017-12-16T19:19:55.801Z,82.30
2017-12-16T19:22:23.957Z,83.40
2017-12-16T19:24:52.106Z,82.60
2017-12-16T19:27:21.078Z,82.90
2017-12-16T19:29:49.261Z,82.80
2017-12-16T19:32:17.410Z,82.90
2017-12-16T19:34:45.584Z,82.50
2017-12-16T19:37:13.737Z,82.90
2017-12-16T19:39:41.883Z,82.60
2017-12-16T19:42:10.042Z,83.00
2017-12-16T19:44:38.993Z,82.90
2017-12-16T19:47:07.276Z,82.90
2017-12-16T19:49:35.421Z,82.70
2017-12-16T19:52:03.612Z,82.60
2017-12-16T19:54:31.751Z,82.40
2017-12-16T19:56:59.909Z,82.30
2017-12-16T19:59:28.840Z,82.80
2017-12-16T20:01:56.994Z,82.80
2017-12-16T20:04:25.281Z,82.70
2017-12-16T20:06:53.438Z,82.80
2017-12-16T20:09:21.622Z,82.30
2017-12-16T20:11:49.772Z,82.10
2017-12-16T20:14:17.937Z,82.20
2017-12-16T20:16:46.085Z,82.30
2017-12-16T20:19:14.240Z,82.30
2017-12-16T20:21:42.655Z,82.70
2017-12-16T20:24:10.843Z,82.60
2017-12-16T20:26:39.000Z,82.90
2017-12-16T20:29:07.215Z,82.50
2017-12-16T20:31:35.360Z,82.40
2017-12-16T20:34:04.304Z,82.30
2017-12-16T20:36:32.466Z,82.30
2017-12-16T20:39:00.770Z,82.30
2017-12-16T20:41:28.910Z,82.30
2017-12-16T20:43:57.117Z,82.60
2017-12-16T20:46:25.281Z,82.90
2017-12-16T20:48:53.476Z,83.00
2017-12-16T20:51:21.616Z,82.80
2017-12-16T20:53:49.787Z,82.90
2017-12-16T20:56:18.007Z,82.80
2017-12-16T20:58:46.142Z,82.70
2017-12-16T21:01:14.357Z,82.80
2017-12-16T21:03:43.276Z,82.60
2017-12-16T21:06:11.456Z,82.60
2017-12-16T21:08:52.901Z,82.90
2017-12-16T21:11:21.828Z,82.50
2017-12-16T21:13:50.019Z,83.00
2017-12-16T21:16:18.227Z,82.90
2017-12-16T21:18:46.382Z,83.30
2017-12-16T21:21:14.698Z,83.40
2017-12-16T21:23:42.836Z,83.30
2017-12-16T21:26:11.029Z,83.50
2017-12-16T21:28:39.179Z,83.70
2017-12-16T21:31:07.368Z,84.10
2017-12-16T21:33:35.546Z,84.30
2017-12-16T21:36:03.836Z,84.30
2017-12-16T21:38:32.018Z,84.10
2017-12-16T21:41:00.216Z,83.40
2017-12-16T21:43:28.344Z,84.00
2017-12-16T21:45:56.488Z,84.10
2017-12-16T21:48:24.668Z,84.00
2017-12-16T21:50:52.824Z,83.80
2017-12-16T21:53:21.146Z,83.90
2017-12-16T21:55:49.336Z,83.50
2017-12-16T21:58:18.253Z,83.10
2017-12-16T22:00:46.457Z,83.10
2017-12-16T22:03:14.608Z,83.50
2017-12-16T22:05:42.782Z,84.40
2017-12-16T22:08:10.941Z,83.60
2017-12-16T22:10:39.105Z,83.80
2017-12-16T22:13:08.195Z,83.90
2017-12-16T22:15:36.376Z,83.90
2017-12-16T22:18:05.327Z,83.80
2017-12-16T22:20:33.486Z,83.70
2017-12-16T22:23:01.623Z,83.60
2017-12-16T22:25:29.821Z,83.50
2017-12-16T22:27:57.971Z,83.70
2017-12-16T22:30:27.047Z,83.80
2017-12-16T22:32:55.945Z,84.20
2017-12-16T22:35:24.882Z,83.40
2017-12-16T22:37:53.046Z,83.40
2017-12-16T22:40:21.198Z,83.20
2017-12-16T22:42:49.385Z,82.90
2017-12-16T22:45:17.517Z,83.00
2017-12-16T22:47:46.579Z,83.30
2017-12-16T22:50:14.737Z,83.30
2017-12-16T22:52:42.873Z,82.90
2017-12-16T22:55:11.818Z,83.20
2017-12-16T22:57:39.989Z,83.20
2017-12-16T23:00:08.146Z,83.70
2017-12-16T23:02:36.301Z,84.10
2017-12-16T23:05:04.581Z,84.50
2017-12-16T23:07:32.737Z,84.80
2017-12-16T23:10:01.704Z,85.10
2017-12-16T23:12:29.857Z,85.10
2017-12-16T23:14:58.012Z,85.60
2017-12-16T23:17:26.179Z,85.80
2017-12-16T23:19:54.308Z,85.70
2017-12-16T23:22:23.397Z,85.30
2017-12-16T23:24:52.318Z,84.70
2017-12-16T23:27:20.474Z,84.70
2017-12-16T23:29:49.412Z,84.70
2017-12-16T23:32:17.535Z,84.70
2017-12-16T23:34:46.472Z,85.00
2017-12-16T23:37:14.628Z,84.90
2017-12-16T23:39:42.764Z,85.00
2017-12-16T23:42:11.065Z,84.80
2017-12-16T23:44:39.208Z,84.70
2017-12-16T23:47:07.396Z,85.30
2017-12-16T23:49:36.323Z,84.40
2017-12-16T23:52:04.472Z,84.40
2017-12-16T23:54:32.628Z,84.40
2017-12-16T23:57:01.553Z,84.50
2017-12-16T23:59:29.824Z,84.50
